Last 24 Hours

Thomas Mountain

10 Minute Data | America/Los_Angeles
as of 9/1/26 11:56 AM PDT
Date & Time Temp (°F) Dew Pt (°F) RH (%) Wind Spd (mph) Wind Dir (°) Wind Gust (mph) Wind Gst Dir (°) Daily Max Temp (°F) Daily Min Temp (°F)
9/1/26 - 1150 71.8 38.4 30 16.8 WSW | 240 24.9 WSW | 251 73.6 62.8
9/1/26 - 1140 72.0 38.0 29 15.3 WSW | 246 25.7 WSW | 252 73.6 62.8
9/1/26 - 1130 71.7 38.2 30 15.0 WSW | 242 25.7 SW | 236 73.1 62.8
9/1/26 - 1120 71.9 37.7 29 16.2 WSW | 242 23.4 WSW | 249 73.1 62.8
9/1/26 - 1110 71.7 37.7 29 15.9 WSW | 239 22.6 WSW | 251 73.1 62.8
9/1/26 - 1100 71.5 36.7 28 15.7 WSW | 240 22.9 WSW | 242 73.1 62.8
9/1/26 - 1050 71.3 36.6 28 14.7 WSW | 238 21.8 WSW | 255 73.1 62.8
9/1/26 - 1040 71.2 34.7 26 15.6 WSW | 243 23.7 WSW | 243 73.1 62.8
9/1/26 - 1030 71.7 33.3 24 12.4 SW | 234 24.2 WSW | 237 73.0 62.8
9/1/26 - 1020 69.8 32.4 25 11.0 WSW | 256 18.7 WSW | 244 70.6 62.8
9/1/26 - 1010 69.6 32.6 25 11.6 WSW | 250 21.1 SW | 234 70.0 62.8
9/1/26 - 1000 68.9 32.2 26 12.4 WSW | 248 20.0 WSW | 257 69.7 62.8
9/1/26 - 0950 68.8 29.8 23 12.8 WSW | 249 19.1 W | 270 69.3 62.8
9/1/26 - 0940 68.8 26.9 21 12.1 WSW | 242 18.4 WSW | 241 69.3 62.8
9/1/26 - 0930 68.4 27.6 22 11.5 WSW | 242 18.8 W | 260 69.0 62.8
9/1/26 - 0920 67.9 28.5 23 11.0 WSW | 245 16.2 WSW | 249 68.4 62.8
9/1/26 - 0910 67.6 29.4 24 12.0 WSW | 246 19.5 WSW | 251 68.1 62.8
9/1/26 - 0900 67.4 26.4 21 11.7 WSW | 250 19.6 WSW | 254 67.9 62.8
9/1/26 - 0850 67.0 21.8 18 11.8 WSW | 244 18.6 WSW | 243 67.3 62.8
9/1/26 - 0840 66.8 21.2 17 10.6 WSW | 242 17.5 WSW | 250 67.2 62.8
9/1/26 - 0830 66.3 21.3 18 9.9 WSW | 247 15.5 WSW | 251 66.6 62.8
9/1/26 - 0820 65.8 21.6 18 8.9 WSW | 246 15.2 W | 270 66.1 62.8
9/1/26 - 0810 65.3 21.6 19 6.9 WSW | 248 13.3 SW | 234 65.7 62.8
9/1/26 - 0800 64.8 21.2 19 8.4 WSW | 249 13.1 WSW | 258 65.4 62.8
9/1/26 - 0750 64.7 21.0 19 7.9 WSW | 249 12.9 WSW | 252 65.4 62.8
9/1/26 - 0740 64.5 20.6 18 8.2 WSW | 252 14.0 W | 261 65.4 62.8
9/1/26 - 0730 64.4 20.5 18 8.0 WSW | 249 13.7 WSW | 252 65.4 62.8
9/1/26 - 0720 64.3 20.3 18 7.2 WSW | 246 14.0 WNW | 288 65.4 62.8
9/1/26 - 0710 64.1 20.3 18 6.9 W | 262 14.2 W | 260 65.4 62.8
9/1/26 - 0700 64.0 20.3 19 7.1 WSW | 256 11.2 WSW | 246 65.4 62.8
9/1/26 - 0650 64.0 20.2 18 7.9 WSW | 256 12.8 WSW | 250 65.4 62.8
9/1/26 - 0640 63.6 20.1 19 5.7 W | 259 9.4 W | 266 65.4 62.8
9/1/26 - 0630 63.4 20.1 19 5.6 W | 266 9.6 WSW | 258 65.4 62.8
9/1/26 - 0620 63.2 20.2 19 3.9 W | 260 7.5 WSW | 250 65.4 62.8
9/1/26 - 0610 63.4 20.4 19 4.7 W | 263 8.1 WNW | 286 65.4 62.8
9/1/26 - 0600 63.4 20.6 19 5.5 W | 270 9.3 WNW | 284 65.4 62.8
9/1/26 - 0550 63.5 20.7 19 5.8 W | 270 10.2 W | 273 65.4 62.8
9/1/26 - 0540 63.2 20.7 19 4.1 W | 269 7.7 WNW | 287 65.4 62.8
9/1/26 - 0530 63.2 21.0 20 5.1 W | 269 9.8 W | 279 65.4 62.8
9/1/26 - 0520 63.0 21.3 20 4.3 W | 268 8.5 W | 280 65.4 62.8
9/1/26 - 0510 63.1 21.6 20 4.4 W | 269 7.9 W | 267 65.4 62.8
9/1/26 - 0500 63.0 22.0 21 4.7 WNW | 283 9.0 WNW | 284 65.4 62.8
9/1/26 - 0450 63.1 22.2 21 5.0 WNW | 284 8.2 W | 276 65.4 62.8
9/1/26 - 0440 63.1 22.6 21 3.6 WNW | 286 6.3 WNW | 294 65.4 62.8
9/1/26 - 0430 63.4 23.1 21 3.0 WNW | 285 5.7 W | 271 65.4 63.2
9/1/26 - 0420 63.4 23.5 22 2.4 W | 278 4.4 W | 266 65.4 63.3
9/1/26 - 0410 63.6 23.5 21 2.2 W | 279 4.9 WNW | 296 65.4 63.4
9/1/26 - 0400 63.6 23.5 21 2.3 W | 264 3.8 WSW | 251 65.4 63.5
9/1/26 - 0350 63.8 23.4 21 2.2 W | 275 4.0 WSW | 255 65.4 63.5
9/1/26 - 0340 64.0 23.1 21 2.3 WSW | 256 4.7 WSW | 256 65.4 63.8
9/1/26 - 0330 64.0 22.9 21 3.0 W | 262 5.7 W | 270 65.4 63.8
9/1/26 - 0320 64.1 22.5 20 3.9 W | 259 6.2 WSW | 254 65.4 63.8
9/1/26 - 0310 64.4 21.5 19 4.6 WSW | 258 7.5 W | 278 65.4 63.8
9/1/26 - 0300 64.1 20.9 19 4.6 W | 269 7.5 W | 276 65.4 63.8
9/1/26 - 0250 64.0 20.4 19 4.6 WNW | 284 6.4 W | 270 65.4 63.8
9/1/26 - 0240 63.9 20.7 19 3.1 W | 281 6.1 WNW | 288 65.4 63.8
9/1/26 - 0230 63.9 21.3 19 2.0 W | 268 4.4 WSW | 255 65.4 63.8
9/1/26 - 0220 64.0 22.3 20 1.9 W | 272 3.6 W | 271 65.4 64.0
9/1/26 - 0210 64.6 22.4 20 2.2 WNW | 286 4.3 WSW | 255 65.4 64.2
9/1/26 - 0200 65.0 22.4 20 3.8 WSW | 247 5.3 WSW | 256 65.4 64.2
9/1/26 - 0150 64.9 22.3 20 3.5 W | 262 7.4 WNW | 296 65.4 64.2
9/1/26 - 0140 64.5 22.0 19 3.6 W | 271 7.5 W | 279 65.4 64.2
9/1/26 - 0130 64.6 22.3 20 5.2 W | 270 8.3 W | 268 65.4 64.5
9/1/26 - 0120 65.0 22.0 19 6.8 W | 259 10.2 WSW | 258 65.4 64.8
9/1/26 - 0110 65.2 22.0 19 7.8 W | 259 11.2 WSW | 252 65.4 65.0
9/1/26 - 0100 65.2 21.6 19 6.6 WSW | 257 10.7 W | 271 78.7 62.5
9/1/26 - 0050 65.3 21.4 18 7.2 WSW | 258 10.9 W | 266 78.7 62.5
9/1/26 - 0040 65.4 21.9 19 7.0 W | 267 11.0 W | 268 78.7 62.5
9/1/26 - 0030 65.3 22.5 19 6.4 W | 266 10.1 WNW | 286 78.7 62.5
9/1/26 - 0020 65.2 23.1 20 5.9 W | 263 8.6 W | 264 78.7 62.5
9/1/26 - 0010 64.9 24.9 22 3.9 W | 270 7.1 WNW | 288 78.7 62.5
9/1/26 - 0000 65.0 25.0 22 2.9 W | 267 4.8 WSW | 253 78.7 62.5
8/31/26 - 2350 65.1 24.2 21 3.3 WSW | 239 4.9 WSW | 248 78.7 62.5
8/31/26 - 2340 65.4 22.5 19 4.2 WSW | 250 5.4 WSW | 237 78.7 62.5
8/31/26 - 2330 66.0 21.7 18 4.8 WSW | 254 7.2 WSW | 255 78.7 62.5
8/31/26 - 2320 66.3 21.0 18 4.1 W | 262 6.4 WSW | 258 78.7 62.5
8/31/26 - 2310 66.0 21.6 18 3.7 W | 270 5.9 W | 270 78.7 62.5
8/31/26 - 2300 65.8 23.6 20 3.8 W | 276 6.8 W | 270 78.7 62.5
8/31/26 - 2250 66.1 26.0 22 4.4 W | 262 5.8 WSW | 253 78.7 62.5
8/31/26 - 2240 65.7 27.5 24 3.9 WSW | 252 6.3 WSW | 250 78.7 62.5
8/31/26 - 2230 65.6 28.5 25 4.4 WSW | 250 6.6 WSW | 256 78.7 62.5
8/31/26 - 2220 65.8 29.2 25 5.0 WSW | 251 8.0 W | 260 78.7 62.5
8/31/26 - 2210 65.9 29.4 25 4.9 W | 259 7.9 W | 260 78.7 62.5
8/31/26 - 2200 65.6 30.8 27 3.7 WSW | 253 4.7 WSW | 245 78.7 62.5
8/31/26 - 2150 65.5 30.6 27 4.2 WSW | 238 5.6 WSW | 251 78.7 62.5
8/31/26 - 2140 65.2 31.2 28 2.3 WNW | 302 4.1 NNW | 336 78.7 62.5
8/31/26 - 2130 64.2 32.8 31 4.6 N | 352 6.3 N | 354 78.7 62.5
8/31/26 - 2120 62.8 34.1 34 4.1 N | 355 5.3 NNW | 348 78.7 62.5
8/31/26 - 2110 63.8 33.7 32 4.9 NNE | 27 6.8 NNE | 12 78.7 63.1
8/31/26 - 2100 66.0 32.7 29 1.4 NNE | 30 4.7 W | 263 78.7 64.8
8/31/26 - 2050 66.2 33.0 29 5.2 W | 268 8.5 W | 264 78.7 65.4
8/31/26 - 2040 65.7 35.8 33 5.7 W | 264 8.8 W | 267 78.7 65.4
8/31/26 - 2030 66.2 37.7 35 5.5 WSW | 254 7.7 SW | 232 78.7 65.4
8/31/26 - 2020 66.9 38.4 35 6.3 W | 267 10.3 W | 270 78.7 65.4
8/31/26 - 2010 66.8 40.8 39 4.8 W | 274 7.6 W | 265 78.7 65.4
8/31/26 - 2000 67.1 41.9 40 4.7 W | 275 7.8 WNW | 288 78.7 65.4
8/31/26 - 1950 67.3 42.3 40 4.7 W | 281 6.7 W | 271 78.7 65.4
8/31/26 - 1940 67.7 42.6 40 6.3 W | 272 10.2 WNW | 284 78.7 65.4
8/31/26 - 1930 67.9 41.4 38 6.2 W | 273 10.4 W | 272 78.7 65.4
8/31/26 - 1920 68.4 41.4 37 7.4 W | 262 11.7 WSW | 249 78.7 65.4
8/31/26 - 1910 69.0 41.6 37 7.6 W | 259 12.8 WSW | 254 78.7 65.4
8/31/26 - 1900 69.4 42.8 38 8.5 WSW | 256 14.2 W | 263 78.7 65.4
8/31/26 - 1850 70.0 43.4 38 9.1 WSW | 256 16.3 W | 269 78.7 65.4
8/31/26 - 1840 70.9 43.2 37 8.5 WSW | 252 13.7 WSW | 244 78.7 65.4
8/31/26 - 1830 71.5 42.6 35 8.4 WSW | 258 15.0 WSW | 244 78.7 65.4
8/31/26 - 1820 72.0 42.4 34 10.5 WSW | 249 16.8 W | 261 78.7 65.4
8/31/26 - 1810 72.4 42.0 33 11.0 WSW | 250 17.4 WSW | 256 78.7 65.4
8/31/26 - 1800 72.6 41.6 33 11.2 WSW | 249 17.5 WSW | 255 78.7 65.4
8/31/26 - 1750 72.8 42.2 33 12.8 WSW | 254 19.3 W | 280 78.7 65.4
8/31/26 - 1740 73.4 43.4 34 12.1 WSW | 248 17.2 WSW | 244 78.7 65.4
8/31/26 - 1730 73.4 43.6 34 13.2 WSW | 248 21.2 WSW | 239 78.7 65.4
8/31/26 - 1720 74.0 43.6 34 11.5 WSW | 249 21.6 WSW | 252 78.7 65.4
8/31/26 - 1710 74.3 44.1 34 10.4 W | 261 18.5 WNW | 294 78.7 65.4
8/31/26 - 1700 75.7 44.8 33 11.9 WSW | 245 20.7 WSW | 241 78.7 65.4
8/31/26 - 1650 75.6 45.3 34 12.5 WSW | 241 24.5 WSW | 251 78.7 65.4
8/31/26 - 1640 75.7 45.9 35 13.9 WSW | 244 21.1 WSW | 248 78.7 65.4
8/31/26 - 1630 75.6 46.0 35 10.6 WSW | 247 24.4 WSW | 256 78.7 65.4
8/31/26 - 1620 75.8 46.3 35 11.4 WSW | 251 23.2 WSW | 243 78.7 65.4
8/31/26 - 1610 76.1 47.3 36 13.4 WSW | 239 25.0 WSW | 248 78.7 65.4
8/31/26 - 1600 77.0 47.8 36 13.6 WSW | 241 20.2 SW | 230 78.7 65.4
8/31/26 - 1550 76.7 48.1 36 12.9 WSW | 238 21.3 WSW | 253 78.7 65.4
8/31/26 - 1540 76.1 47.3 36 13.3 SW | 236 21.1 WSW | 248 78.7 65.4
8/31/26 - 1530 76.1 46.5 35 12.8 WSW | 240 19.9 WSW | 247 78.7 65.4
8/31/26 - 1520 76.3 46.1 34 12.0 SW | 236 21.4 WSW | 242 78.7 65.4
8/31/26 - 1510 76.3 45.9 34 13.6 SW | 235 23.3 SW | 236 78.7 65.4
8/31/26 - 1500 76.5 45.7 33 13.8 WSW | 241 20.2 SW | 233 78.7 65.4
8/31/26 - 1450 75.8 45.8 34 14.1 WSW | 242 23.6 WSW | 237 78.7 65.4
8/31/26 - 1440 77.2 46.1 33 13.1 WSW | 239 20.8 WSW | 239 78.7 65.4
8/31/26 - 1430 76.5 45.9 34 13.8 SW | 236 22.4 WSW | 241 78.7 65.4
8/31/26 - 1420 77.0 46.0 33 12.2 SW | 234 22.9 S | 186 78.7 65.4
8/31/26 - 1410 76.7 46.0 34 13.5 WSW | 238 21.0 WSW | 247 78.7 65.4
8/31/26 - 1400 77.1 46.2 33 10.8 WSW | 243 19.9 WSW | 246 78.7 65.4
8/31/26 - 1350 76.5 46.2 34 12.7 WSW | 245 22.3 WSW | 238 77.5 65.4
8/31/26 - 1340 76.4 46.3 34 10.2 WSW | 250 19.3 W | 265 77.5 65.4
8/31/26 - 1330 75.6 47.1 36 8.9 WSW | 242 16.9 WSW | 239 77.5 65.4
8/31/26 - 1320 76.4 47.7 36 11.5 WSW | 237 19.7 SSW | 212 77.5 65.4
8/31/26 - 1310 75.4 48.0 38 11.6 WSW | 240 20.2 WSW | 242 76.9 65.4
8/31/26 - 1300 75.1 48.0 38 9.2 WSW | 254 18.5 WSW | 252 76.9 65.4
8/31/26 - 1250 75.1 48.5 39 11.0 WSW | 246 21.3 WSW | 250 76.9 65.4
8/31/26 - 1240 75.3 48.9 39 11.9 SW | 228 21.8 SW | 220 76.9 65.4
8/31/26 - 1230 75.6 50.0 41 12.2 SW | 230 23.7 SW | 222 76.9 65.4
8/31/26 - 1220 75.3 48.9 39 11.8 SW | 225 19.4 SW | 220 76.9 65.4
8/31/26 - 1210 74.2 48.5 40 13.5 WSW | 239 23.2 SW | 235 76.9 65.4
8/31/26 - 1200 74.9 48.9 40 14.0 WSW | 245 25.1 WSW | 239 76.9 65.4
8/31/26 - 1150 75.6 48.9 39 13.0 WSW | 239 20.2 W | 266 76.9 65.4
Max 77.2 50.0 41 16.8 - 25.7 - 78.7 65.4
Avg 68.6 32.6 27 8.2 - 13.7 - - -
Min 62.8 20.1 17 1.4 - 3.6 - 65.4 62.5